Terminal Aerodrome Forecast
Issued by NWS Wilmington, NC

Home | Current Version | Previous Version | Text Only | Print | Product List | Glossary On
Versions: 1 2 3 4 5 6 7 8 9 10 11 12 13 14 15 16 17 18 19 20 21 22 23
527
FTUS42 KILM 161133
TAFILM
TAF
KILM 161133Z 1612/1712 35005KT P6SM SCT050
     FM161600 00000KT P6SM VCTS BKN035CB
     FM162300 00000KT P6SM BKN035
     FM170700 00000KT P6SM SCT140
     FM170900 VRB03KT P6SM SCT003=

USA.gov is the U.S. government's official web portal to all federal, state and local government web resources and services.